Etusivu
METAR-TAF:

METAR-TAF

Lentoasemat :

Hassan

El Aaiún, Marokko

Leveyspiiri: 27-10N, Pituuspiiri: 013-12-59W, korkeus merenpinnasta: 6 m

Tämänhetkinen sää

Tämä raportti tehtiin 55 minuuttia sitten, kello 22.00 UTC
Tuuli 11 kn pohjoisesta/koillisesta
Lämpötila 21°C
Kosteus 100%
Ilmanpaine 1015 hPa
Näkyvyys: 6000 m

METAR: GMML 162200Z 03011KT 6000 NSC 21/21 Q1015 NOSIG

Aika: 23:55 (22:55 UTC)

Sääennuste

Tämä raportti tehtiin 5 tuntia ja 55 minuuttia sitten, kello 17.00 UTC
Ennuste voimassa 16. päivästä klo 18 UTC - 17. päivään klo 24 UTC
Tuuli 12 kn pohjoisesta
Näkyvyys: 8000 m
Tulossa
16. päivästä klo 22 UTC - 16. päivään klo 24 UTC
Pilvistä 1000 ft:n korkeudessa
Todennäköisyys 30%
17. päivästä klo 00 UTC - 17. päivään klo 06 UTC
Näkyvyys: 4000 m
utua
Tulossa
17. päivästä klo 08 UTC - 17. päivään klo 10 UTC

TAF: GMML 161700Z 1618/1724 36012KT 8000 NSC BECMG 1622/1624 OVC010 PROB30 1700/1706 4000 BR BECMG 1708/1710 NSC

Säähavainnot ja -ennusteet yli 4000 lentoasemalta (METAR- ja TAF-raportit).

Käytössä olevat sääasemat on merkitty karttaan keltaisilla ja punaisilla pisteillä.

Aseta hiiri pisteen päälle nähdäksesi sääaseman nimen.

Klikkaa sitten nähdäksesi säähavainnot ja -ennusteet.

Kartan vaihtaminen: klikkaa mustalla rastilla varustettuja vihreitä pisteitä, niin voit zoomata sisään; viivalla varustettua vihreää pistettä, niin voit zoomata ulos tai vihreitä nuolia, niin pääset viereisille kartoille.


METAR-TAF: